Wetterdaten: Woche 31.12.12 - 06.01.13 (KW1)
Datum Zeit Temp. A. Feuchte A. Luftdruck Regen Wind Richtung Taupunkt Windchill Windben
31.12.2012 00:00 5,8 C 89 % 1013,5 hPa 0,0 l/m 7,1 km/h (2 Bft) S-SW 4,1 C 5,0 C 17,2 km/h (3 Bft)
31.12.2012 01:00 6,1 C 89 % 1013,6 hPa 0,0 l/m 7,1 km/h (2 Bft) SW 4,5 C 5,4 C 16,4 km/h (3 Bft)
31.12.2012 02:00 6,7 C 89 % 1013,3 hPa 0,0 l/m 7,1 km/h (2 Bft) S-SW 5,1 C 6,0 C 17,2 km/h (3 Bft)
31.12.2012 03:00 7,3 C 87 % 1013,2 hPa 0,0 l/m 8,5 km/h (2 Bft) S-SW 5,3 C 5,7 C 19,3 km/h (3 Bft)
31.12.2012 04:00 8,0 C 84 % 1012,8 hPa 0,0 l/m 9,5 km/h (2 Bft) SW 5,4 C 5,8 C 22,4 km/h (4 Bft)
31.12.2012 05:00 8,4 C 82 % 1012,3 hPa 0,0 l/m 10,1 km/h (2 Bft) S 5,5 C 5,8 C 23,2 km/h (4 Bft)
31.12.2012 06:00 8,5 C 82 % 1012,0 hPa 0,0 l/m 9,5 km/h (2 Bft) SW 5,6 C 6,3 C 22,1 km/h (4 Bft)
31.12.2012 07:00 8,7 C 80 % 1011,9 hPa 0,0 l/m 10,8 km/h (2 Bft) SW 5,5 C 5,7 C 23,3 km/h (4 Bft)
31.12.2012 08:00 8,9 C 78 % 1011,9 hPa 0,0 l/m 11,0 km/h (2 Bft) S 5,3 C 5,8 C 26,6 km/h (4 Bft)
31.12.2012 09:00 8,9 C 78 % 1012,3 hPa 0,0 l/m 8,9 km/h (2 Bft) S-SW 5,2 C 7,1 C 21,3 km/h (4 Bft)
31.12.2012 10:00 9,0 C 77 % 1012,2 hPa 0,0 l/m 9,6 km/h (2 Bft) S-SW 5,2 C 6,8 C 21,2 km/h (4 Bft)
31.12.2012 11:00 9,0 C 77 % 1012,1 hPa 0,0 l/m 9,0 km/h (2 Bft) SW 5,2 C 7,2 C 20,9 km/h (4 Bft)
31.12.2012 12:00 9,3 C 76 % 1011,5 hPa 0,0 l/m 8,6 km/h (2 Bft) S-SW 5,3 C 7,7 C 19,0 km/h (3 Bft)
31.12.2012 13:00 9,7 C 74 % 1010,8 hPa 0,0 l/m 9,8 km/h (2 Bft) SW 5,4 C 7,5 C 22,6 km/h (4 Bft)
31.12.2012 14:00 9,7 C 74 % 1010,2 hPa 0,0 l/m 8,4 km/h (2 Bft) SW 5,3 C 8,4 C 19,3 km/h (3 Bft)
31.12.2012 15:00 9,1 C 77 % 1009,7 hPa 0,0 l/m 8,4 km/h (2 Bft) SW 5,2 C 7,7 C 17,0 km/h (3 Bft)
31.12.2012 16:00 8,7 C 78 % 1009,4 hPa 0,0 l/m 8,0 km/h (2 Bft) S-SW 5,1 C 7,5 C 15,7 km/h (3 Bft)
31.12.2012 17:00 8,5 C 79 % 1008,8 hPa 0,0 l/m 10,3 km/h (2 Bft) S-SW 5,0 C 5,7 C 20,1 km/h (4 Bft)
31.12.2012 18:00 8,2 C 79 % 1007,8 hPa 0,0 l/m 11,1 km/h (2 Bft) S 4,8 C 5,0 C 21,3 km/h (4 Bft)
31.12.2012 19:00 8,1 C 80 % 1006,9 hPa 0,0 l/m 12,3 km/h (2 Bft) SW 4,8 C 4,2 C 23,3 km/h (4 Bft)
31.12.2012 20:00 8,3 C 80 % 1006,6 hPa 0,0 l/m 11,8 km/h (2 Bft) S 5,0 C 4,7 C 23,2 km/h (4 Bft)
31.12.2012 21:00 8,4 C 79 % 1006,0 hPa 0,0 l/m 11,9 km/h (2 Bft) S-SW 5,0 C 4,7 C 24,1 km/h (4 Bft)
31.12.2012 22:00 8,4 C 79 % 1005,1 hPa 0,0 l/m 12,8 km/h (3 Bft) S-SW 5,0 C 4,3 C 24,5 km/h (4 Bft)
31.12.2012 23:00 8,3 C 79 % 1004,4 hPa 0,0 l/m 13,2 km/h (3 Bft) S-SW 4,9 C 3,9 C 25,5 km/h (4 Bft)
01.01.2013 00:00 8,4 C 78 % 1003,7 hPa 0,0 l/m 13,6 km/h (3 Bft) S-SW 4,7 C 3,9 C 26,4 km/h (4 Bft)
01.01.2013 01:00 8,4 C 77 % 1002,9 hPa 0,0 l/m 13,1 km/h (3 Bft) S-SW 4,6 C 4,1 C 25,5 km/h (4 Bft)
01.01.2013 02:00 8,4 C 77 % 1002,5 hPa 0,0 l/m 13,4 km/h (3 Bft) S 4,6 C 3,9 C 24,9 km/h (4 Bft)
01.01.2013 03:00 8,4 C 79 % 1001,9 hPa 0,0 l/m 11,9 km/h (2 Bft) SW 4,9 C 4,8 C 23,7 km/h (4 Bft)
01.01.2013 04:00 8,4 C 79 % 1001,4 hPa 0,0 l/m 11,3 km/h (2 Bft) S-SW 4,9 C 5,1 C 23,0 km/h (4 Bft)
01.01.2013 05:00 8,1 C 80 % 1001,0 hPa 0,0 l/m 11,7 km/h (2 Bft) S-SW 4,8 C 4,5 C 22,5 km/h (4 Bft)
01.01.2013 06:00 7,4 C 85 % 1000,8 hPa 0,2 l/m 9,2 km/h (2 Bft) S-SW 5,0 C 5,3 C 18,0 km/h (3 Bft)
01.01.2013 07:00 7,5 C 83 % 1000,7 hPa 0,0 l/m 7,6 km/h (2 Bft) S-SW 4,8 C 6,6 C 14,8 km/h (3 Bft)
01.01.2013 08:00 7,3 C 84 % 1000,9 hPa 0,0 l/m 8,0 km/h (2 Bft) S-SW 4,8 C 6,0 C 16,6 km/h (3 Bft)
01.01.2013 09:00 7,1 C 85 % 1001,2 hPa 0,0 l/m 10,3 km/h (2 Bft) S 4,8 C 4,2 C 19,8 km/h (4 Bft)
01.01.2013 10:00 6,9 C 87 % 1001,4 hPa 0,0 l/m 10,3 km/h (2 Bft) SW 4,8 C 4,0 C 20,2 km/h (4 Bft)
01.01.2013 11:00 6,9 C 87 % 1001,6 hPa 0,0 l/m 7,9 km/h (2 Bft) SW 5,0 C 5,8 C 17,0 km/h (3 Bft)
01.01.2013 12:00 6,8 C 89 % 1001,7 hPa 0,2 l/m 6,8 km/h (2 Bft) SW 5,1 C 6,4 C 15,0 km/h (3 Bft)
01.01.2013 13:00 6,8 C 91 % 1001,7 hPa 0,4 l/m 6,6 km/h (2 Bft) S-SW 5,3 C 6,4 C 15,2 km/h (3 Bft)
01.01.2013 14:00 6,4 C 93 % 1001,9 hPa 0,6 l/m 6,6 km/h (2 Bft) SW 5,4 C 6,1 C 13,7 km/h (3 Bft)
01.01.2013 15:00 6,3 C 94 % 1002,2 hPa 0,4 l/m 5,6 km/h (2 Bft) S-SW 5,4 C 6,3 C 13,6 km/h (3 Bft)
01.01.2013 16:00 6,5 C 94 % 1002,8 hPa 0,4 l/m 5,4 km/h (1 Bft) W 5,6 C 6,3 C 13,6 km/h (3 Bft)
01.01.2013 17:00 6,4 C 94 % 1003,7 hPa 0,2 l/m 2,3 km/h (1 Bft) W 5,5 C 6,4 C 7,1 km/h (2 Bft)
01.01.2013 18:00 6,1 C 95 % 1004,8 hPa 0,4 l/m 2,3 km/h (1 Bft) W 5,3 C 6,1 C 7,2 km/h (2 Bft)
01.01.2013 19:00 5,6 C 92 % 1006,0 hPa 0,4 l/m 4,6 km/h (1 Bft) W 4,4 C 5,5 C 11,8 km/h (2 Bft)
01.01.2013 20:00 5,0 C 92 % 1007,1 hPa 0,0 l/m 2,6 km/h (1 Bft) W-SW 3,9 C 5,0 C 7,5 km/h (2 Bft)
01.01.2013 21:00 4,8 C 92 % 1008,1 hPa 0,0 l/m 5,1 km/h (1 Bft) W 3,6 C 4,8 C 14,2 km/h (3 Bft)
01.01.2013 22:00 3,9 C 92 % 1008,6 hPa 0,0 l/m 3,4 km/h (1 Bft) S 2,8 C 3,9 C 10,8 km/h (2 Bft)
01.01.2013 23:00 3,4 C 93 % 1009,2 hPa 0,0 l/m 4,0 km/h (1 Bft) SW 2,4 C 3,4 C 11,6 km/h (2 Bft)
02.01.2013 00:00 3,6 C 93 % 1009,7 hPa 0,0 l/m 4,5 km/h (1 Bft) SW 2,5 C 3,6 C 13,6 km/h (3 Bft)
02.01.2013 01:00 4,0 C 91 % 1010,1 hPa 0,0 l/m 4,2 km/h (1 Bft) S-SW 2,6 C 3,9 C 12,4 km/h (2 Bft)
02.01.2013 02:00 4,0 C 91 % 1010,5 hPa 0,0 l/m 4,0 km/h (1 Bft) S 2,6 C 4,0 C 11,1 km/h (2 Bft)
02.01.2013 03:00 4,3 C 90 % 1010,9 hPa 0,0 l/m 4,8 km/h (1 Bft) S-SW 2,7 C 4,2 C 13,8 km/h (3 Bft)
02.01.2013 04:00 4,6 C 88 % 1011,3 hPa 0,0 l/m 6,5 km/h (2 Bft) SW 2,9 C 4,2 C 15,3 km/h (3 Bft)
02.01.2013 05:00 4,7 C 89 % 1011,8 hPa 0,2 l/m 7,4 km/h (2 Bft) W-NW 3,1 C 3,7 C 18,6 km/h (3 Bft)
02.01.2013 06:00 4,6 C 90 % 1012,7 hPa 0,2 l/m 6,6 km/h (2 Bft) S-SW 3,2 C 4,3 C 17,3 km/h (3 Bft)
02.01.2013 07:00 4,6 C 91 % 1013,8 hPa 0,0 l/m 5,6 km/h (2 Bft) W-NW 3,3 C 4,4 C 14,9 km/h (3 Bft)
02.01.2013 08:00 4,6 C 92 % 1015,1 hPa 1,2 l/m 4,1 km/h (1 Bft) SW 3,4 C 4,6 C 11,2 km/h (2 Bft)
02.01.2013 09:00 4,6 C 93 % 1016,1 hPa 0,2 l/m 5,5 km/h (2 Bft) W 3,6 C 4,3 C 13,6 km/h (3 Bft)
02.01.2013 10:00 4,9 C 93 % 1017,1 hPa 0,0 l/m 5,0 km/h (1 Bft) W 3,9 C 4,9 C 13,4 km/h (3 Bft)
02.01.2013 11:00 5,4 C 91 % 1018,1 hPa 0,0 l/m 6,1 km/h (2 Bft) W 4,1 C 5,0 C 17,3 km/h (3 Bft)
02.01.2013 12:00 5,7 C 92 % 1018,8 hPa 0,0 l/m 5,2 km/h (1 Bft) W 4,4 C 5,7 C 13,8 km/h (3 Bft)
02.01.2013 13:00 6,1 C 90 % 1019,3 hPa 0,0 l/m 5,9 km/h (2 Bft) W-SW 4,6 C 5,9 C 16,4 km/h (3 Bft)
02.01.2013 14:00 6,2 C 89 % 1020,1 hPa 0,0 l/m 5,5 km/h (2 Bft) W 4,5 C 6,1 C 13,7 km/h (3 Bft)
02.01.2013 15:00 5,8 C 91 % 1021,1 hPa 0,2 l/m 3,6 km/h (1 Bft) SW 4,5 C 5,8 C 10,3 km/h (2 Bft)
02.01.2013 16:00 5,8 C 91 % 1022,0 hPa 0,0 l/m 3,5 km/h (1 Bft) W 4,5 C 5,8 C 11,8 km/h (2 Bft)
02.01.2013 17:00 5,9 C 89 % 1022,6 hPa 0,0 l/m 4,9 km/h (1 Bft) W 4,3 C 5,8 C 13,6 km/h (3 Bft)
02.01.2013 18:00 5,7 C 88 % 1023,2 hPa 0,0 l/m 5,0 km/h (1 Bft) S 3,9 C 5,7 C 13,7 km/h (3 Bft)
02.01.2013 19:00 5,8 C 88 % 1023,8 hPa 0,0 l/m 5,0 km/h (1 Bft) W-NW 4,0 C 5,8 C 13,7 km/h (3 Bft)
02.01.2013 20:00 5,9 C 88 % 1024,1 hPa 0,0 l/m 4,3 km/h (1 Bft) S 4,1 C 5,9 C 12,2 km/h (2 Bft)
02.01.2013 21:00 5,6 C 88 % 1024,5 hPa 0,0 l/m 4,7 km/h (1 Bft) S-SW 3,8 C 5,6 C 12,0 km/h (2 Bft)
02.01.2013 22:00 5,5 C 87 % 1024,4 hPa 0,0 l/m 4,5 km/h (1 Bft) S-SW 3,5 C 5,5 C 11,7 km/h (2 Bft)
02.01.2013 23:00 5,7 C 86 % 1024,0 hPa 0,0 l/m 6,3 km/h (2 Bft) S 3,6 C 5,5 C 15,4 km/h (3 Bft)
03.01.2013 00:00 5,9 C 87 % 1023,9 hPa 0,0 l/m 5,5 km/h (2 Bft) SW 3,8 C 5,8 C 15,7 km/h (3 Bft)
03.01.2013 01:00 6,0 C 87 % 1023,6 hPa 0,0 l/m 6,6 km/h (2 Bft) S-SW 3,9 C 5,5 C 15,4 km/h (3 Bft)
03.01.2013 02:00 5,7 C 90 % 1023,1 hPa 0,0 l/m 7,9 km/h (2 Bft) S-SW 4,1 C 4,4 C 18,4 km/h (3 Bft)
03.01.2013 03:00 5,2 C 93 % 1022,3 hPa 0,0 l/m 8,6 km/h (2 Bft) W 4,2 C 3,3 C 20,8 km/h (4 Bft)
03.01.2013 04:00 5,1 C 95 % 1021,9 hPa 0,8 l/m 7,2 km/h (2 Bft) S-SW 4,4 C 4,4 C 18,4 km/h (3 Bft)
03.01.2013 05:00 5,5 C 96 % 1021,7 hPa 1,0 l/m 6,4 km/h (2 Bft) S-SW 4,9 C 5,1 C 15,8 km/h (3 Bft)
03.01.2013 06:00 6,0 C 96 % 1021,5 hPa 0,2 l/m 8,0 km/h (2 Bft) S-SW 5,5 C 4,7 C 20,9 km/h (4 Bft)
03.01.2013 07:00 6,6 C 96 % 1021,5 hPa 0,2 l/m 8,6 km/h (2 Bft) W-SW 6,0 C 4,9 C 21,3 km/h (4 Bft)
03.01.2013 08:00 7,1 C 96 % 1022,0 hPa 0,0 l/m 8,2 km/h (2 Bft) W 6,5 C 5,7 C 19,3 km/h (3 Bft)
03.01.2013 09:00 7,5 C 96 % 1022,4 hPa 0,2 l/m 8,3 km/h (2 Bft) W 6,9 C 6,0 C 21,0 km/h (4 Bft)
03.01.2013 10:00 8,0 C 96 % 1022,8 hPa 0,2 l/m 8,8 km/h (2 Bft) S-SW 7,5 C 6,2 C 19,7 km/h (3 Bft)
03.01.2013 11:00 8,4 C 97 % 1023,1 hPa 0,2 l/m 7,3 km/h (2 Bft) SW 7,9 C 7,6 C 16,5 km/h (3 Bft)
03.01.2013 12:00 9,1 C 97 % 1023,2 hPa 0,0 l/m 7,4 km/h (2 Bft) W 8,7 C 8,4 C 18,2 km/h (3 Bft)
03.01.2013 13:00 9,8 C 96 % 1023,1 hPa 0,4 l/m 8,0 km/h (2 Bft) S-SW 9,2 C 8,6 C 19,2 km/h (3 Bft)
03.01.2013 14:00 9,8 C 96 % 1023,5 hPa 0,4 l/m 7,0 km/h (2 Bft) W 9,2 C 9,3 C 17,4 km/h (3 Bft)
03.01.2013 15:00 9,8 C 96 % 1023,9 hPa 0,0 l/m 6,5 km/h (2 Bft) W-SW 9,2 C 9,5 C 15,4 km/h (3 Bft)
03.01.2013 16:00 9,9 C 95 % 1024,5 hPa 0,4 l/m 6,9 km/h (2 Bft) W 9,1 C 9,4 C 17,3 km/h (3 Bft)
03.01.2013 17:00 9,8 C 95 % 1025,3 hPa 0,4 l/m 6,1 km/h (2 Bft) W 9,1 C 9,6 C 15,6 km/h (3 Bft)
03.01.2013 18:00 9,8 C 94 % 1026,2 hPa 0,0 l/m 8,2 km/h (2 Bft) W-NW 8,9 C 8,5 C 18,9 km/h (3 Bft)
03.01.2013 19:00 9,4 C 93 % 1026,8 hPa 0,0 l/m 3,9 km/h (1 Bft) W-NW 8,4 C 9,4 C 9,8 km/h (2 Bft)
03.01.2013 20:00 9,1 C 93 % 1027,7 hPa 0,0 l/m 5,2 km/h (1 Bft) W-NW 8,1 C 9,1 C 13,6 km/h (3 Bft)
03.01.2013 21:00 9,0 C 92 % 1028,2 hPa 0,0 l/m 6,2 km/h (2 Bft) W 7,8 C 8,9 C 16,1 km/h (3 Bft)
03.01.2013 22:00 8,5 C 92 % 1028,6 hPa 0,0 l/m 6,1 km/h (2 Bft) W 7,3 C 8,4 C 15,3 km/h (3 Bft)
03.01.2013 23:00 8,2 C 92 % 1029,1 hPa 0,0 l/m 6,4 km/h (2 Bft) NW 7,0 C 7,7 C 15,4 km/h (3 Bft)
04.01.2013 00:00 7,9 C 91 % 1029,2 hPa 0,0 l/m 7,0 km/h (2 Bft) W-SW 6,6 C 7,3 C 15,4 km/h (3 Bft)
04.01.2013 01:00 7,7 C 91 % 1029,4 hPa 0,0 l/m 6,7 km/h (2 Bft) W-NW 6,3 C 7,2 C 15,9 km/h (3 Bft)
04.01.2013 02:00 7,4 C 91 % 1029,6 hPa 0,0 l/m 7,0 km/h (2 Bft) W 6,1 C 6,8 C 16,2 km/h (3 Bft)
04.01.2013 03:00 7,0 C 91 % 1030,0 hPa 0,0 l/m 5,1 km/h (1 Bft) W 5,6 C 7,0 C 13,2 km/h (3 Bft)
04.01.2013 04:00 6,9 C 92 % 1029,7 hPa 0,0 l/m 4,6 km/h (1 Bft) W 5,7 C 6,8 C 12,5 km/h (2 Bft)
04.01.2013 05:00 7,5 C 92 % 1029,2 hPa 0,0 l/m 6,3 km/h (2 Bft) W 6,3 C 7,2 C 15,7 km/h (3 Bft)
04.01.2013 06:00 8,0 C 92 % 1028,8 hPa 0,0 l/m 8,0 km/h (2 Bft) W-NW 6,8 C 6,8 C 19,3 km/h (3 Bft)
04.01.2013 07:00 8,5 C 92 % 1029,2 hPa 0,0 l/m 7,7 km/h (2 Bft) W-NW 7,2 C 7,5 C 17,4 km/h (3 Bft)
04.01.2013 08:00 8,9 C 92 % 1029,5 hPa 0,0 l/m 6,9 km/h (2 Bft) W-NW 7,6 C 8,2 C 15,6 km/h (3 Bft)
04.01.2013 09:00 8,8 C 94 % 1029,0 hPa 0,0 l/m 4,4 km/h (1 Bft) W 7,9 C 8,8 C 11,4 km/h (2 Bft)
04.01.2013 10:00 9,1 C 95 % 1028,8 hPa 0,0 l/m 5,7 km/h (2 Bft) W 8,4 C 8,9 C 14,2 km/h (3 Bft)
04.01.2013 11:00 9,4 C 96 % 1028,4 hPa 0,0 l/m 6,7 km/h (2 Bft) W 8,7 C 9,0 C 16,1 km/h (3 Bft)
04.01.2013 12:00 9,4 C 96 % 1027,8 hPa 0,0 l/m 7,2 km/h (2 Bft) W 8,8 C 8,7 C 18,4 km/h (3 Bft)
04.01.2013 13:00 9,5 C 96 % 1027,6 hPa 0,2 l/m 7,2 km/h (2 Bft) W 8,9 C 8,7 C 18,6 km/h (3 Bft)
04.01.2013 14:00 9,4 C 96 % 1027,3 hPa 0,0 l/m 7,3 km/h (2 Bft) W-NW 8,8 C 8,7 C 17,8 km/h (3 Bft)
04.01.2013 15:00 9,4 C 95 % 1027,0 hPa 0,0 l/m 8,2 km/h (2 Bft) W 8,5 C 8,1 C 20,1 km/h (4 Bft)
04.01.2013 16:00 9,4 C 94 % 1027,0 hPa 0,0 l/m 10,1 km/h (2 Bft) W-NW 8,5 C 6,9 C 22,1 km/h (4 Bft)
04.01.2013 17:00 9,3 C 95 % 1026,9 hPa 0,0 l/m 9,8 km/h (2 Bft) W-NW 8,5 C 7,0 C 20,9 km/h (4 Bft)
04.01.2013 18:00 9,4 C 94 % 1026,8 hPa 0,0 l/m 10,7 km/h (2 Bft) W-NW 8,5 C 6,6 C 25,3 km/h (4 Bft)
04.01.2013 19:00 9,4 C 93 % 1026,4 hPa 0,0 l/m 9,5 km/h (2 Bft) W 8,3 C 7,3 C 23,1 km/h (4 Bft)
04.01.2013 20:00 9,3 C 93 % 1026,3 hPa 0,2 l/m 9,3 km/h (2 Bft) W 8,2 C 7,3 C 21,0 km/h (4 Bft)
04.01.2013 21:00 9,3 C 93 % 1026,4 hPa 0,0 l/m 8,6 km/h (2 Bft) W-NW 8,1 C 7,7 C 20,6 km/h (4 Bft)
04.01.2013 22:00 9,2 C 92 % 1026,4 hPa 0,0 l/m 8,8 km/h (2 Bft) W 8,0 C 7,5 C 19,8 km/h (4 Bft)
04.01.2013 23:00 8,8 C 93 % 1026,3 hPa 1,0 l/m 9,4 km/h (2 Bft) W 7,8 C 6,7 C 20,1 km/h (4 Bft)
05.01.2013 00:00 8,4 C 95 % 1026,3 hPa 2,2 l/m 8,0 km/h (2 Bft) W-NW 7,6 C 7,1 C 17,7 km/h (3 Bft)
05.01.2013 01:00 8,2 C 96 % 1026,1 hPa 1,4 l/m 8,6 km/h (2 Bft) W-NW 7,6 C 6,5 C 19,3 km/h (3 Bft)
05.01.2013 02:00 8,1 C 96 % 1026,2 hPa 0,8 l/m 8,6 km/h (2 Bft) W-SW 7,5 C 6,4 C 18,1 km/h (3 Bft)
05.01.2013 03:00 8,0 C 96 % 1026,4 hPa 0,4 l/m 8,8 km/h (2 Bft) W 7,4 C 6,2 C 20,4 km/h (4 Bft)
05.01.2013 04:00 7,9 C 96 % 1026,6 hPa 0,2 l/m 7,9 km/h (2 Bft) W-NW 7,3 C 6,8 C 17,4 km/h (3 Bft)
05.01.2013 05:00 7,8 C 96 % 1026,9 hPa 0,4 l/m 7,3 km/h (2 Bft) W-NW 7,2 C 7,1 C 15,8 km/h (3 Bft)
05.01.2013 06:00 7,8 C 96 % 1027,1 hPa 0,2 l/m 6,1 km/h (2 Bft) W-NW 7,2 C 7,6 C 14,0 km/h (3 Bft)
05.01.2013 07:00 7,7 C 96 % 1027,5 hPa 0,0 l/m 5,2 km/h (1 Bft) W-NW 7,1 C 7,7 C 11,4 km/h (2 Bft)
05.01.2013 08:00 7,8 C 95 % 1027,8 hPa 0,0 l/m 8,0 km/h (2 Bft) NW 7,1 C 6,5 C 16,1 km/h (3 Bft)
05.01.2013 09:00 7,8 C 95 % 1028,3 hPa 0,0 l/m 9,1 km/h (2 Bft) NW 7,0 C 5,8 C 16,0 km/h (3 Bft)
05.01.2013 10:00 7,7 C 95 % 1028,9 hPa 0,0 l/m 7,4 km/h (2 Bft) N-NW 7,0 C 6,8 C 12,8 km/h (3 Bft)
05.01.2013 11:00 7,7 C 96 % 1029,1 hPa 0,2 l/m 5,8 km/h (2 Bft) NW 7,1 C 7,4 C 10,9 km/h (2 Bft)
05.01.2013 12:00 7,7 C 96 % 1029,1 hPa 0,2 l/m 3,7 km/h (1 Bft) W-NW 7,2 C 7,7 C 8,3 km/h (2 Bft)
05.01.2013 13:00 7,7 C 97 % 1029,0 hPa 0,0 l/m 4,2 km/h (1 Bft) NW 7,3 C 7,7 C 8,7 km/h (2 Bft)
05.01.2013 14:00 7,8 C 97 % 1029,3 hPa 0,0 l/m 4,5 km/h (1 Bft) W-NW 7,2 C 7,7 C 9,5 km/h (2 Bft)
05.01.2013 15:00 7,8 C 97 % 1029,5 hPa 0,2 l/m 2,0 km/h (1 Bft) W 7,3 C 7,8 C 5,1 km/h (1 Bft)
05.01.2013 16:00 7,7 C 97 % 1029,7 hPa 0,0 l/m 2,0 km/h (1 Bft) W 7,2 C 7,7 C 5,2 km/h (1 Bft)
05.01.2013 17:00 7,5 C 97 % 1029,6 hPa 0,0 l/m 4,7 km/h (1 Bft) W-NW 7,0 C 7,4 C 11,6 km/h (2 Bft)
05.01.2013 18:00 7,2 C 97 % 1029,6 hPa 0,2 l/m 4,8 km/h (1 Bft) W-NW 6,8 C 7,1 C 11,0 km/h (2 Bft)
05.01.2013 19:00 7,0 C 97 % 1029,6 hPa 0,0 l/m 3,8 km/h (1 Bft) W-NW 6,5 C 7,0 C 9,4 km/h (2 Bft)
05.01.2013 20:00 6,8 C 97 % 1029,6 hPa 0,0 l/m 3,5 km/h (1 Bft) W-NW 6,4 C 6,8 C 9,9 km/h (2 Bft)
05.01.2013 21:00 6,7 C 97 % 1029,6 hPa 0,0 l/m 2,7 km/h (1 Bft) W 6,3 C 6,7 C 7,2 km/h (2 Bft)
05.01.2013 22:00 6,6 C 97 % 1029,6 hPa 0,2 l/m 2,9 km/h (1 Bft) W-NW 6,2 C 6,6 C 7,2 km/h (2 Bft)
05.01.2013 23:00 6,5 C 97 % 1029,6 hPa 0,0 l/m 3,2 km/h (1 Bft) W 6,0 C 6,5 C 7,5 km/h (2 Bft)
06.01.2013 00:00 6,2 C 97 % 1029,5 hPa 0,2 l/m 4,1 km/h (1 Bft) W 5,8 C 6,2 C 9,8 km/h (2 Bft)
06.01.2013 01:00 6,1 C 97 % 1029,1 hPa 0,0 l/m 3,5 km/h (1 Bft) W-NW 5,6 C 6,1 C 8,9 km/h (2 Bft)
06.01.2013 02:00 6,0 C 97 % 1028,4 hPa 0,0 l/m 1,5 km/h (1 Bft) W 5,6 C 6,0 C 5,7 km/h (2 Bft)
06.01.2013 03:00 6,1 C 97 % 1027,8 hPa 0,0 l/m 1,5 km/h (1 Bft) W 5,6 C 6,1 C 5,7 km/h (2 Bft)
06.01.2013 04:00 6,1 C 97 % 1027,1 hPa 0,2 l/m 3,2 km/h (1 Bft) W 5,6 C 6,1 C 9,3 km/h (2 Bft)
06.01.2013 05:00 5,8 C 96 % 1026,3 hPa 0,0 l/m 3,0 km/h (1 Bft) W-SW 5,2 C 5,8 C 8,7 km/h (2 Bft)
06.01.2013 06:00 5,8 C 96 % 1026,0 hPa 0,2 l/m 2,8 km/h (1 Bft) W-SW 5,3 C 5,8 C 8,4 km/h (2 Bft)
06.01.2013 07:00 6,0 C 97 % 1025,6 hPa 0,0 l/m 2,7 km/h (1 Bft) W 5,6 C 6,0 C 9,0 km/h (2 Bft)
06.01.2013 08:00 6,4 C 97 % 1025,0 hPa 0,0 l/m 3,5 km/h (1 Bft) W 5,9 C 6,4 C 9,8 km/h (2 Bft)
06.01.2013 09:00 6,7 C 96 % 1024,5 hPa 0,0 l/m 4,4 km/h (1 Bft) W-NW 6,1 C 6,7 C 11,8 km/h (2 Bft)
06.01.2013 10:00 6,9 C 96 % 1024,4 hPa 0,0 l/m 5,1 km/h (1 Bft) W-NW 6,3 C 6,8 C 13,0 km/h (3 Bft)
06.01.2013 11:00 7,0 C 97 % 1024,1 hPa 0,4 l/m 5,6 km/h (2 Bft) W-NW 6,5 C 7,0 C 13,4 km/h (3 Bft)
06.01.2013 12:00 7,2 C 96 % 1024,0 hPa 1,8 l/m 7,5 km/h (2 Bft) W 6,7 C 6,3 C 17,4 km/h (3 Bft)
06.01.2013 13:00 7,4 C 96 % 1023,5 hPa 0,0 l/m 7,3 km/h (2 Bft) W-NW 6,8 C 6,5 C 16,9 km/h (3 Bft)
06.01.2013 14:00 7,7 C 96 % 1023,4 hPa 0,0 l/m 7,0 km/h (2 Bft) W-NW 7,1 C 7,2 C 16,2 km/h (3 Bft)
06.01.2013 15:00 7,8 C 96 % 1023,5 hPa 0,2 l/m 6,9 km/h (2 Bft) W-NW 7,2 C 7,2 C 15,8 km/h (3 Bft)
06.01.2013 16:00 7,8 C 96 % 1023,7 hPa 0,0 l/m 7,4 km/h (2 Bft) W 7,2 C 7,0 C 15,4 km/h (3 Bft)
06.01.2013 17:00 7,8 C 96 % 1024,1 hPa 0,0 l/m 6,6 km/h (2 Bft) W-NW 7,2 C 7,3 C 13,8 km/h (3 Bft)
06.01.2013 18:00 7,7 C 96 % 1024,4 hPa 0,0 l/m 5,9 km/h (2 Bft) W-NW 7,2 C 7,4 C 12,5 km/h (2 Bft)
06.01.2013 19:00 7,6 C 96 % 1024,6 hPa 0,0 l/m 5,2 km/h (1 Bft) W 7,0 C 7,6 C 12,2 km/h (2 Bft)
06.01.2013 20:00 7,4 C 96 % 1025,0 hPa 0,2 l/m 5,9 km/h (2 Bft) NW 6,8 C 7,1 C 12,3 km/h (2 Bft)
06.01.2013 21:00 6,7 C 95 % 1025,6 hPa 0,0 l/m 11,8 km/h (2 Bft) NW 5,9 C 3,0 C 20,9 km/h (4 Bft)
06.01.2013 22:00 6,2 C 95 % 1026,1 hPa 0,2 l/m 9,8 km/h (2 Bft) NW 5,5 C 3,7 C 17,7 km/h (3 Bft)
06.01.2013 23:00 6,0 C 94 % 1026,5 hPa 0,0 l/m 7,7 km/h (2 Bft) W-NW 5,1 C 4,8 C 15,0 km/h (3 Bft)
Min-Datum _ 01.01.13 31.12.12 01.01.13 - 05.01.13 - 01.01.13 03.01.13 05.01.13
_ Min-Zeit 23:35 13:50 07:20 - 15:25 - 23:05 04:05 15:25
Minimum _ 3,3 C 73 % 1000,6 hPa - 0,2 km/h (0 Bft) - 2,4 C 1,6 C 1,6 km/h (1 Bft)
Max-Datum _ 31.12.12 03.01.13 04.01.13 05.01.13 01.01.13 - 03.01.13 03.01.13 31.12.12
_ Max-Zeit 13:45 09:55 02:50 00:45 00:00 - 13:05 16:00 08:40
Maximum _ 9,9 C 97 % 1030,1 hPa 2,2 l/m 15,8 km/h
S-SW (3 Bft)
- 9,2 C 9,9 C 37,0 km/h
SW (5 Bft)
Durchschnitt _ 7,3 C 91 % 1019,6 hPa #21,0 l/m 6,9 km/h (2 Bft) W 5,9 C 6,3 C 15,9 km/h (3 Bft)